sensor_id;sensor_type;location;lat;lon;timestamp;pressure;altitude;pressure_sealevel;temperature;humidity
20027;BME280;10174;42.688;23.344;2023-07-16T00:00:52;95517.69;;;25.15;73.33
20027;BME280;10174;42.688;23.344;2023-07-16T00:03:17;95422.06;;;24.60;73.00
20027;BME280;10174;42.688;23.344;2023-07-16T00:05:43;95513.72;;;25.12;73.12
20027;BME280;10174;42.688;23.344;2023-07-16T00:08:08;95476.19;;;24.88;73.83
20027;BME280;10174;42.688;23.344;2023-07-16T00:10:37;95514.50;;;25.13;73.35
20027;BME280;10174;42.688;23.344;2023-07-16T00:13:03;95487.59;;;24.90;73.52
20027;BME280;10174;42.688;23.344;2023-07-16T00:15:29;95424.59;;;24.53;73.92
20027;BME280;10174;42.688;23.344;2023-07-16T00:17:55;95492.38;;;24.93;73.69
20027;BME280;10174;42.688;23.344;2023-07-16T00:20:21;95491.16;;;24.91;73.99
20027;BME280;10174;42.688;23.344;2023-07-16T00:22:48;95497.88;;;24.93;73.57
20027;BME280;10174;42.688;23.344;2023-07-16T00:25:14;95507.81;;;24.98;73.65
20027;BME280;10174;42.688;23.344;2023-07-16T00:27:39;95493.34;;;24.85;74.09
20027;BME280;10174;42.688;23.344;2023-07-16T00:30:05;95509.34;;;24.95;73.45
20027;BME280;10174;42.688;23.344;2023-07-16T00:32:30;95496.97;;;24.89;74.06
20027;BME280;10174;42.688;23.344;2023-07-16T00:34:56;95516.41;;;24.96;73.60
20027;BME280;10174;42.688;23.344;2023-07-16T00:37:21;95507.72;;;24.94;73.47
20027;BME280;10174;42.688;23.344;2023-07-16T00:39:47;95490.84;;;24.80;73.77
20027;BME280;10174;42.688;23.344;2023-07-16T00:42:12;95513.47;;;24.89;74.01
20027;BME280;10174;42.688;23.344;2023-07-16T00:44:37;95511.38;;;24.98;73.66
20027;BME280;10174;42.688;23.344;2023-07-16T00:47:03;95477.59;;;24.82;73.63
20027;BME280;10174;42.688;23.344;2023-07-16T00:49:29;95508.16;;;24.96;73.87
20027;BME280;10174;42.688;23.344;2023-07-16T00:51:54;95505.44;;;24.96;73.59
20027;BME280;10174;42.688;23.344;2023-07-16T00:54:20;95502.25;;;24.94;73.43
20027;BME280;10174;42.688;23.344;2023-07-16T00:56:46;95433.31;;;24.43;73.34
20027;BME280;10174;42.688;23.344;2023-07-16T00:59:11;95510.03;;;24.92;73.42
20027;BME280;10174;42.688;23.344;2023-07-16T01:01:38;95481.88;;;24.67;73.48
20027;BME280;10174;42.688;23.344;2023-07-16T01:04:04;95504.78;;;24.87;73.13
20027;BME280;10174;42.688;23.344;2023-07-16T01:06:32;95503.66;;;24.88;73.04
20027;BME280;10174;42.688;23.344;2023-07-16T01:09:18;95504.34;;;24.85;73.25
20027;BME280;10174;42.688;23.344;2023-07-16T01:11:45;95499.59;;;24.69;73.56
20027;BME280;10174;42.688;23.344;2023-07-16T01:14:12;95461.78;;;24.50;73.94
20027;BME280;10174;42.688;23.344;2023-07-16T01:16:38;95495.34;;;24.72;73.18
20027;BME280;10174;42.688;23.344;2023-07-16T01:19:03;95504.84;;;24.75;73.82
20027;BME280;10174;42.688;23.344;2023-07-16T01:21:57;95457.03;;;24.35;73.64
20027;BME280;10174;42.688;23.344;2023-07-16T01:24:53;95515.38;;;24.73;74.14
20027;BME280;10174;42.688;23.344;2023-07-16T01:27:53;95512.00;;;24.63;74.04
20027;BME280;10174;42.688;23.344;2023-07-16T01:30:23;95479.53;;;24.41;74.27
20027;BME280;10174;42.688;23.344;2023-07-16T01:32:50;95512.22;;;24.58;74.21
20027;BME280;10174;42.688;23.344;2023-07-16T01:35:16;95514.75;;;24.51;74.64
20027;BME280;10174;42.688;23.344;2023-07-16T01:37:42;95494.53;;;24.43;75.04
20027;BME280;10174;42.688;23.344;2023-07-16T01:40:08;95505.34;;;24.52;74.74
20027;BME280;10174;42.688;23.344;2023-07-16T01:42:37;95512.00;;;24.51;74.68
20027;BME280;10174;42.688;23.344;2023-07-16T01:45:03;95508.34;;;24.47;74.86
20027;BME280;10174;42.688;23.344;2023-07-16T01:49:54;95521.97;;;24.43;74.44
20027;BME280;10174;42.688;23.344;2023-07-16T01:52:19;95514.75;;;24.39;74.25
20027;BME280;10174;42.688;23.344;2023-07-16T01:54:45;95523.50;;;24.28;74.59
20027;BME280;10174;42.688;23.344;2023-07-16T01:57:10;95511.16;;;24.22;74.58
20027;BME280;10174;42.688;23.344;2023-07-16T01:59:35;95425.72;;;23.71;74.75
20027;BME280;10174;42.688;23.344;2023-07-16T02:02:01;95512.06;;;24.14;75.21
20027;BME280;10174;42.688;23.344;2023-07-16T02:04:26;95514.13;;;24.17;75.70
20027;BME280;10174;42.688;23.344;2023-07-16T02:06:51;95526.47;;;24.23;74.77
20027;BME280;10174;42.688;23.344;2023-07-16T02:09:17;95480.44;;;23.92;75.45
20027;BME280;10174;42.688;23.344;2023-07-16T02:11:42;95521.00;;;24.11;75.52
20027;BME280;10174;42.688;23.344;2023-07-16T02:14:08;95519.41;;;24.10;75.22
20027;BME280;10174;42.688;23.344;2023-07-16T02:16:34;95520.09;;;24.07;75.70
20027;BME280;10174;42.688;23.344;2023-07-16T02:18:59;95500.69;;;23.87;75.73
20027;BME280;10174;42.688;23.344;2023-07-16T02:21:24;95503.63;;;23.82;75.86
20027;BME280;10174;42.688;23.344;2023-07-16T02:23:50;95526.84;;;23.97;75.90
20027;BME280;10174;42.688;23.344;2023-07-16T02:26:15;95496.06;;;23.79;75.57
20027;BME280;10174;42.688;23.344;2023-07-16T02:28:41;95519.66;;;23.92;75.72
20027;BME280;10174;42.688;23.344;2023-07-16T02:31:06;95504.88;;;23.72;75.77
20027;BME280;10174;42.688;23.344;2023-07-16T02:33:31;95508.75;;;23.71;76.33
20027;BME280;10174;42.688;23.344;2023-07-16T02:35:57;95529.22;;;23.74;76.62
20027;BME280;10174;42.688;23.344;2023-07-16T02:38:22;95516.44;;;23.65;76.47
20027;BME280;10174;42.688;23.344;2023-07-16T02:40:48;95523.06;;;23.64;76.50
20027;BME280;10174;42.688;23.344;2023-07-16T02:43:14;95523.50;;;23.66;76.72
20027;BME280;10174;42.688;23.344;2023-07-16T02:45:40;95498.38;;;23.40;77.22
20027;BME280;10174;42.688;23.344;2023-07-16T02:48:06;95529.06;;;23.45;78.47
20027;BME280;10174;42.688;23.344;2023-07-16T02:50:35;95528.03;;;23.38;79.26
20027;BME280;10174;42.688;23.344;2023-07-16T02:53:03;95535.22;;;23.30;79.82
20027;BME280;10174;42.688;23.344;2023-07-16T02:55:28;95527.97;;;23.13;80.61
20027;BME280;10174;42.688;23.344;2023-07-16T02:57:53;95524.78;;;23.11;80.85
20027;BME280;10174;42.688;23.344;2023-07-16T03:00:19;95530.28;;;23.11;80.97
20027;BME280;10174;42.688;23.344;2023-07-16T03:02:44;95532.69;;;23.12;80.67
20027;BME280;10174;42.688;23.344;2023-07-16T03:05:10;95540.56;;;23.14;80.76
20027;BME280;10174;42.688;23.344;2023-07-16T03:07:35;95531.88;;;23.12;81.22
20027;BME280;10174;42.688;23.344;2023-07-16T03:10:00;95544.44;;;23.13;81.08
20027;BME280;10174;42.688;23.344;2023-07-16T03:12:26;95522.94;;;23.03;81.04
20027;BME280;10174;42.688;23.344;2023-07-16T03:14:51;95537.81;;;23.14;80.04
20027;BME280;10174;42.688;23.344;2023-07-16T03:17:20;95549.91;;;23.13;79.97
20027;BME280;10174;42.688;23.344;2023-07-16T03:19:46;95543.63;;;23.12;80.07
20027;BME280;10174;42.688;23.344;2023-07-16T03:22:12;95534.22;;;23.01;80.27
20027;BME280;10174;42.688;23.344;2023-07-16T03:24:37;95458.28;;;22.56;80.23
20027;BME280;10174;42.688;23.344;2023-07-16T03:27:02;95522.41;;;22.88;80.58
20027;BME280;10174;42.688;23.344;2023-07-16T03:29:28;95556.47;;;23.00;80.63
20027;BME280;10174;42.688;23.344;2023-07-16T03:31:53;95538.38;;;22.86;80.67
20027;BME280;10174;42.688;23.344;2023-07-16T03:34:19;95519.50;;;22.72;81.13
20027;BME280;10174;42.688;23.344;2023-07-16T03:36:44;95546.97;;;22.97;80.90
20027;BME280;10174;42.688;23.344;2023-07-16T03:39:10;95534.72;;;22.82;80.91
20027;BME280;10174;42.688;23.344;2023-07-16T03:41:35;95555.06;;;22.93;81.14
20027;BME280;10174;42.688;23.344;2023-07-16T03:44:00;95548.44;;;22.94;80.78
20027;BME280;10174;42.688;23.344;2023-07-16T03:46:26;95485.63;;;22.44;80.57
20027;BME280;10174;42.688;23.344;2023-07-16T03:48:53;95560.06;;;22.91;80.72
20027;BME280;10174;42.688;23.344;2023-07-16T03:51:18;95561.69;;;22.92;80.45
20027;BME280;10174;42.688;23.344;2023-07-16T03:53:44;95544.06;;;22.81;80.73
20027;BME280;10174;42.688;23.344;2023-07-16T03:56:09;95562.75;;;22.79;80.92
20027;BME280;10174;42.688;23.344;2023-07-16T03:58:34;95568.50;;;22.86;80.62
20027;BME280;10174;42.688;23.344;2023-07-16T04:01:00;95552.81;;;22.74;80.67
20027;BME280;10174;42.688;23.344;2023-07-16T04:03:25;95577.19;;;22.88;80.71
20027;BME280;10174;42.688;23.344;2023-07-16T04:05:50;95583.44;;;22.89;80.72
20027;BME280;10174;42.688;23.344;2023-07-16T04:08:16;95562.38;;;22.89;80.69
20027;BME280;10174;42.688;23.344;2023-07-16T04:10:41;95562.22;;;22.86;80.24
20027;BME280;10174;42.688;23.344;2023-07-16T04:13:07;95566.94;;;22.98;80.41
20027;BME280;10174;42.688;23.344;2023-07-16T04:15:32;95571.41;;;23.02;80.17
20027;BME280;10174;42.688;23.344;2023-07-16T04:17:57;95522.25;;;22.72;80.21
20027;BME280;10174;42.688;23.344;2023-07-16T04:20:23;95550.06;;;22.95;79.71
20027;BME280;10174;42.688;23.344;2023-07-16T04:22:48;95545.94;;;22.89;80.21
20027;BME280;10174;42.688;23.344;2023-07-16T04:25:14;95574.31;;;23.06;79.75
20027;BME280;10174;42.688;23.344;2023-07-16T04:27:40;95482.53;;;22.45;80.01
20027;BME280;10174;42.688;23.344;2023-07-16T04:30:07;95584.28;;;23.10;79.75
20027;BME280;10174;42.688;23.344;2023-07-16T04:32:32;95562.84;;;23.04;79.78
20027;BME280;10174;42.688;23.344;2023-07-16T04:34:58;95560.13;;;23.04;79.23
20027;BME280;10174;42.688;23.344;2023-07-16T04:37:23;95572.75;;;23.17;79.15
20027;BME280;10174;42.688;23.344;2023-07-16T04:39:49;95566.59;;;23.20;78.67
20027;BME280;10174;42.688;23.344;2023-07-16T04:42:14;95584.09;;;23.28;78.94
20027;BME280;10174;42.688;23.344;2023-07-16T04:44:41;95584.09;;;23.28;78.95
20027;BME280;10174;42.688;23.344;2023-07-16T04:47:07;95575.28;;;23.22;79.11
20027;BME280;10174;42.688;23.344;2023-07-16T04:49:35;95553.81;;;23.12;79.14
20027;BME280;10174;42.688;23.344;2023-07-16T04:52:01;95590.16;;;23.34;78.91
20027;BME280;10174;42.688;23.344;2023-07-16T04:54:27;95490.53;;;22.71;78.72
20027;BME280;10174;42.688;23.344;2023-07-16T04:56:52;95496.59;;;22.77;78.33
20027;BME280;10174;42.688;23.344;2023-07-16T04:59:17;95538.03;;;23.09;78.29
20027;BME280;10174;42.688;23.344;2023-07-16T05:01:43;95575.09;;;23.40;77.93
20027;BME280;10174;42.688;23.344;2023-07-16T05:04:08;95579.69;;;23.48;77.47
20027;BME280;10174;42.688;23.344;2023-07-16T05:06:33;95594.69;;;23.63;77.04
20027;BME280;10174;42.688;23.344;2023-07-16T05:08:59;95598.69;;;23.65;77.21
20027;BME280;10174;42.688;23.344;2023-07-16T05:11:24;95582.91;;;23.62;77.15
20027;BME280;10174;42.688;23.344;2023-07-16T05:13:51;95583.97;;;23.70;76.85
20027;BME280;10174;42.688;23.344;2023-07-16T05:16:16;95455.31;;;22.94;76.80
20027;BME280;10174;42.688;23.344;2023-07-16T05:18:42;95577.44;;;23.75;76.94
20027;BME280;10174;42.688;23.344;2023-07-16T05:21:07;95577.47;;;23.87;76.77
20027;BME280;10174;42.688;23.344;2023-07-16T05:23:33;95564.22;;;23.89;76.24
20027;BME280;10174;42.688;23.344;2023-07-16T05:25:58;95600.56;;;24.11;76.41
20027;BME280;10174;42.688;23.344;2023-07-16T05:28:24;95594.88;;;24.16;75.59
20027;BME280;10174;42.688;23.344;2023-07-16T05:30:58;95592.31;;;24.23;74.83
20027;BME280;10174;42.688;23.344;2023-07-16T05:33:23;95601.22;;;24.32;74.61
20027;BME280;10174;42.688;23.344;2023-07-16T05:35:49;95580.91;;;24.21;74.16
20027;BME280;10174;42.688;23.344;2023-07-16T05:38:15;95600.19;;;24.37;73.81
20027;BME280;10174;42.688;23.344;2023-07-16T05:40:40;95598.72;;;24.40;73.61
20027;BME280;10174;42.688;23.344;2023-07-16T05:43:06;95601.25;;;24.45;74.25
20027;BME280;10174;42.688;23.344;2023-07-16T05:45:31;95609.94;;;24.59;73.24
20027;BME280;10174;42.688;23.344;2023-07-16T05:47:57;95606.25;;;24.67;72.71
20027;BME280;10174;42.688;23.344;2023-07-16T05:50:22;95610.44;;;25.18;71.10
20027;BME280;10174;42.688;23.344;2023-07-16T05:52:47;95602.06;;;25.87;68.56
20027;BME280;10174;42.688;23.344;2023-07-16T05:55:14;95529.22;;;25.65;67.26
20027;BME280;10174;42.688;23.344;2023-07-16T05:57:39;95587.34;;;25.95;67.04
20027;BME280;10174;42.688;23.344;2023-07-16T06:00:05;95617.56;;;26.43;65.42
20027;BME280;10174;42.688;23.344;2023-07-16T06:02:32;95611.47;;;26.34;66.92
20027;BME280;10174;42.688;23.344;2023-07-16T06:04:57;95617.91;;;26.57;66.87
20027;BME280;10174;42.688;23.344;2023-07-16T06:07:22;95614.22;;;26.85;65.20
20027;BME280;10174;42.688;23.344;2023-07-16T06:09:48;95618.78;;;27.16;63.02
20027;BME280;10174;42.688;23.344;2023-07-16T06:12:13;95603.63;;;27.88;60.90
20027;BME280;10174;42.688;23.344;2023-07-16T06:14:39;95564.31;;;27.72;60.15
20027;BME280;10174;42.688;23.344;2023-07-16T06:17:04;95607.22;;;27.93;60.58
20027;BME280;10174;42.688;23.344;2023-07-16T06:19:30;95538.94;;;28.13;57.86
20027;BME280;10174;42.688;23.344;2023-07-16T06:21:55;95613.81;;;29.18;55.95
20027;BME280;10174;42.688;23.344;2023-07-16T06:24:21;95610.31;;;29.55;54.98
20027;BME280;10174;42.688;23.344;2023-07-16T06:26:46;95607.88;;;29.84;53.92
20027;BME280;10174;42.688;23.344;2023-07-16T06:29:13;95614.69;;;29.94;54.17
20027;BME280;10174;42.688;23.344;2023-07-16T06:31:38;95604.47;;;31.27;50.12
20027;BME280;10174;42.688;23.344;2023-07-16T06:34:04;95588.91;;;30.34;52.37
20027;BME280;10174;42.688;23.344;2023-07-16T06:36:29;95587.63;;;29.80;53.44
20027;BME280;10174;42.688;23.344;2023-07-16T06:38:54;95611.13;;;28.91;56.02
20027;BME280;10174;42.688;23.344;2023-07-16T06:41:20;95601.28;;;28.64;56.91
20027;BME280;10174;42.688;23.344;2023-07-16T06:43:45;95588.06;;;28.00;58.64
20027;BME280;10174;42.688;23.344;2023-07-16T06:46:11;95603.84;;;27.57;60.20
20027;BME280;10174;42.688;23.344;2023-07-16T06:48:36;95596.09;;;27.04;61.89
20027;BME280;10174;42.688;23.344;2023-07-16T06:51:01;95584.06;;;26.92;62.96
20027;BME280;10174;42.688;23.344;2023-07-16T06:53:27;95601.75;;;27.11;62.60
20027;BME280;10174;42.688;23.344;2023-07-16T06:55:52;95598.28;;;27.14;62.21
20027;BME280;10174;42.688;23.344;2023-07-16T06:58:18;95598.03;;;27.23;62.25
20027;BME280;10174;42.688;23.344;2023-07-16T07:00:44;95578.31;;;27.01;61.35
20027;BME280;10174;42.688;23.344;2023-07-16T07:03:10;95455.63;;;26.48;61.31
20027;BME280;10174;42.688;23.344;2023-07-16T07:05:35;95581.44;;;27.39;61.59
20027;BME280;10174;42.688;23.344;2023-07-16T07:08:03;95551.47;;;27.37;60.28
20027;BME280;10174;42.688;23.344;2023-07-16T07:10:29;95584.16;;;27.58;60.41
20027;BME280;10174;42.688;23.344;2023-07-16T07:12:54;95575.44;;;27.56;60.14
20027;BME280;10174;42.688;23.344;2023-07-16T07:15:19;95601.44;;;27.98;59.37
20027;BME280;10174;42.688;23.344;2023-07-16T07:17:45;95595.91;;;27.98;59.95
20027;BME280;10174;42.688;23.344;2023-07-16T07:20:12;95542.34;;;27.79;58.31
20027;BME280;10174;42.688;23.344;2023-07-16T07:22:38;95588.53;;;28.32;57.69
20027;BME280;10174;42.688;23.344;2023-07-16T07:25:04;95592.81;;;28.53;57.42
20027;BME280;10174;42.688;23.344;2023-07-16T07:27:29;95587.88;;;28.39;57.21
20027;BME280;10174;42.688;23.344;2023-07-16T07:29:55;95576.59;;;28.51;57.23
20027;BME280;10174;42.688;23.344;2023-07-16T07:32:21;95586.16;;;28.57;57.22
20027;BME280;10174;42.688;23.344;2023-07-16T07:34:47;95589.03;;;28.65;56.50
20027;BME280;10174;42.688;23.344;2023-07-16T07:37:13;95580.22;;;28.29;57.10
20027;BME280;10174;42.688;23.344;2023-07-16T07:39:38;95584.56;;;28.56;56.89
20027;BME280;10174;42.688;23.344;2023-07-16T07:42:04;95595.75;;;28.64;57.06
20027;BME280;10174;42.688;23.344;2023-07-16T07:44:29;95588.06;;;28.53;56.88
20027;BME280;10174;42.688;23.344;2023-07-16T07:46:55;95587.41;;;28.90;55.72
20027;BME280;10174;42.688;23.344;2023-07-16T07:49:20;95572.16;;;28.70;56.20
20027;BME280;10174;42.688;23.344;2023-07-16T07:51:45;95570.50;;;28.65;56.07
20027;BME280;10174;42.688;23.344;2023-07-16T07:54:14;95582.38;;;29.00;56.25
20027;BME280;10174;42.688;23.344;2023-07-16T07:56:39;95584.16;;;29.15;54.67
20027;BME280;10174;42.688;23.344;2023-07-16T07:59:05;95592.38;;;29.08;55.49
20027;BME280;10174;42.688;23.344;2023-07-16T08:01:30;95583.19;;;29.30;54.80
20027;BME280;10174;42.688;23.344;2023-07-16T08:03:56;95580.66;;;29.93;52.78
20027;BME280;10174;42.688;23.344;2023-07-16T08:06:21;95579.91;;;29.96;52.74
20027;BME280;10174;42.688;23.344;2023-07-16T08:08:46;95584.53;;;29.85;52.98
20027;BME280;10174;42.688;23.344;2023-07-16T08:11:12;95576.47;;;29.73;53.67
20027;BME280;10174;42.688;23.344;2023-07-16T08:13:37;95582.97;;;29.84;52.39
20027;BME280;10174;42.688;23.344;2023-07-16T08:16:03;95539.34;;;29.74;53.50
20027;BME280;10174;42.688;23.344;2023-07-16T08:18:28;95515.53;;;30.10;51.29
20027;BME280;10174;42.688;23.344;2023-07-16T08:20:53;95572.22;;;30.27;52.11
20027;BME280;10174;42.688;23.344;2023-07-16T08:23:19;95588.84;;;30.27;52.47
20027;BME280;10174;42.688;23.344;2023-07-16T08:25:44;95566.56;;;30.13;51.49
20027;BME280;10174;42.688;23.344;2023-07-16T08:28:09;95562.16;;;29.63;52.92
20027;BME280;10174;42.688;23.344;2023-07-16T08:30:36;95566.75;;;29.86;53.11
20027;BME280;10174;42.688;23.344;2023-07-16T08:33:02;95592.31;;;30.17;52.51
20027;BME280;10174;42.688;23.344;2023-07-16T08:35:27;95573.16;;;30.42;51.92
20027;BME280;10174;42.688;23.344;2023-07-16T08:37:53;95593.13;;;30.77;51.66
20027;BME280;10174;42.688;23.344;2023-07-16T08:40:19;95581.53;;;31.37;50.46
20027;BME280;10174;42.688;23.344;2023-07-16T08:42:45;95583.66;;;32.09;47.31
20027;BME280;10174;42.688;23.344;2023-07-16T08:45:11;95541.00;;;31.07;49.44
20027;BME280;10174;42.688;23.344;2023-07-16T08:47:37;95575.28;;;31.73;49.00
20027;BME280;10174;42.688;23.344;2023-07-16T08:50:03;95570.91;;;32.62;45.49
20027;BME280;10174;42.688;23.344;2023-07-16T08:52:29;95565.13;;;34.46;42.21
20027;BME280;10174;42.688;23.344;2023-07-16T08:54:55;95565.69;;;35.68;39.07
20027;BME280;10174;42.688;23.344;2023-07-16T08:57:21;95559.47;;;37.02;37.14
20027;BME280;10174;42.688;23.344;2023-07-16T08:59:50;95516.44;;;36.52;36.55
20027;BME280;10174;42.688;23.344;2023-07-16T09:02:20;95570.88;;;37.68;35.35
20027;BME280;10174;42.688;23.344;2023-07-16T09:04:49;95570.50;;;37.50;35.34
20027;BME280;10174;42.688;23.344;2023-07-16T09:07:16;95557.94;;;36.78;35.80
20027;BME280;10174;42.688;23.344;2023-07-16T09:09:42;95566.03;;;38.05;34.41
20027;BME280;10174;42.688;23.344;2023-07-16T09:12:13;95558.38;;;37.73;34.56
20027;BME280;10174;42.688;23.344;2023-07-16T09:14:42;95553.38;;;38.63;34.14
20027;BME280;10174;42.688;23.344;2023-07-16T09:17:07;95547.94;;;38.56;33.40
20027;BME280;10174;42.688;23.344;2023-07-16T09:19:32;95542.88;;;37.68;35.12
20027;BME280;10174;42.688;23.344;2023-07-16T09:21:58;95544.22;;;38.46;34.00
20027;BME280;10174;42.688;23.344;2023-07-16T09:24:23;95534.88;;;38.95;33.44
20027;BME280;10174;42.688;23.344;2023-07-16T09:26:50;95543.66;;;39.39;32.19
20027;BME280;10174;42.688;23.344;2023-07-16T09:29:16;95539.72;;;41.72;29.34
20027;BME280;10174;42.688;23.344;2023-07-16T09:34:20;95543.00;;;41.17;29.51
20027;BME280;10174;42.688;23.344;2023-07-16T09:36:48;95511.34;;;38.46;33.13
20027;BME280;10174;42.688;23.344;2023-07-16T09:39:18;95541.88;;;37.95;34.23
20027;BME280;10174;42.688;23.344;2023-07-16T09:41:46;95504.72;;;37.91;33.99
20027;BME280;10174;42.688;23.344;2023-07-16T09:44:13;95497.56;;;38.23;33.19
20027;BME280;10174;42.688;23.344;2023-07-16T09:46:39;95533.28;;;37.86;34.55
20027;BME280;10174;42.688;23.344;2023-07-16T09:49:05;95529.59;;;38.22;34.07
20027;BME280;10174;42.688;23.344;2023-07-16T09:51:31;95529.19;;;38.69;33.74
20027;BME280;10174;42.688;23.344;2023-07-16T09:54:00;95538.41;;;38.99;33.03
20027;BME280;10174;42.688;23.344;2023-07-16T09:56:31;95527.41;;;39.60;31.97
20027;BME280;10174;42.688;23.344;2023-07-16T09:58:59;95523.34;;;40.60;31.25
20027;BME280;10174;42.688;23.344;2023-07-16T10:01:26;95531.75;;;40.25;30.97
20027;BME280;10174;42.688;23.344;2023-07-16T10:03:52;95493.31;;;39.19;32.59
20027;BME280;10174;42.688;23.344;2023-07-16T10:06:17;95468.25;;;41.97;28.60
20027;BME280;10174;42.688;23.344;2023-07-16T10:08:49;95487.94;;;40.02;31.40
20027;BME280;10174;42.688;23.344;2023-07-16T10:11:18;95504.69;;;39.67;31.59
20027;BME280;10174;42.688;23.344;2023-07-16T10:13:48;95413.88;;;39.83;31.10
20027;BME280;10174;42.688;23.344;2023-07-16T10:16:21;95510.63;;;40.90;30.25
20027;BME280;10174;42.688;23.344;2023-07-16T10:18:52;95503.31;;;40.80;30.14
20027;BME280;10174;42.688;23.344;2023-07-16T10:21:24;95507.75;;;39.72;31.88
20027;BME280;10174;42.688;23.344;2023-07-16T10:23:58;95509.19;;;39.77;31.94
20027;BME280;10174;42.688;23.344;2023-07-16T10:26:28;95498.34;;;40.84;30.76
20027;BME280;10174;42.688;23.344;2023-07-16T10:28:54;95500.59;;;40.89;30.50
20027;BME280;10174;42.688;23.344;2023-07-16T10:31:24;95493.16;;;40.25;31.64
20027;BME280;10174;42.688;23.344;2023-07-16T10:34:03;95495.88;;;40.16;31.13
20027;BME280;10174;42.688;23.344;2023-07-16T10:36:42;95482.97;;;40.76;30.69
20027;BME280;10174;42.688;23.344;2023-07-16T10:39:08;95494.66;;;40.52;30.97
20027;BME280;10174;42.688;23.344;2023-07-16T10:41:34;95476.59;;;41.70;28.95
20027;BME280;10174;42.688;23.344;2023-07-16T10:44:00;95484.84;;;43.34;26.99
20027;BME280;10174;42.688;23.344;2023-07-16T10:46:25;95488.00;;;42.07;28.18
20027;BME280;10174;42.688;23.344;2023-07-16T10:48:51;95481.41;;;41.28;29.65
20027;BME280;10174;42.688;23.344;2023-07-16T10:51:17;95485.09;;;42.20;28.17
20027;BME280;10174;42.688;23.344;2023-07-16T10:53:43;95485.72;;;42.61;27.25
20027;BME280;10174;42.688;23.344;2023-07-16T10:56:09;95448.53;;;43.85;25.63
20027;BME280;10174;42.688;23.344;2023-07-16T10:58:37;95488.22;;;42.22;27.34
20027;BME280;10174;42.688;23.344;2023-07-16T11:01:02;95451.69;;;40.39;29.43
20027;BME280;10174;42.688;23.344;2023-07-16T11:03:28;95393.72;;;40.19;29.78
20027;BME280;10174;42.688;23.344;2023-07-16T11:05:53;95473.72;;;42.01;27.71
20027;BME280;10174;42.688;23.344;2023-07-16T11:08:25;95477.47;;;40.50;30.19
20027;BME280;10174;42.688;23.344;2023-07-16T11:10:56;95465.78;;;40.96;30.16
20027;BME280;10174;42.688;23.344;2023-07-16T11:13:31;95467.47;;;41.56;29.72
20027;BME280;10174;42.688;23.344;2023-07-16T11:15:56;95468.69;;;41.46;28.65
20027;BME280;10174;42.688;23.344;2023-07-16T11:18:23;95449.72;;;40.27;29.59
20027;BME280;10174;42.688;23.344;2023-07-16T11:20:53;95454.22;;;39.89;30.37
20027;BME280;10174;42.688;23.344;2023-07-16T11:23:19;95446.63;;;38.54;31.99
20027;BME280;10174;42.688;23.344;2023-07-16T11:25:48;95448.53;;;38.86;31.76
20027;BME280;10174;42.688;23.344;2023-07-16T11:28:14;95456.28;;;38.95;32.24
20027;BME280;10174;42.688;23.344;2023-07-16T11:30:40;95458.84;;;38.01;32.76
20027;BME280;10174;42.688;23.344;2023-07-16T11:33:10;95458.97;;;37.28;34.10
20027;BME280;10174;42.688;23.344;2023-07-16T11:35:36;95380.03;;;36.80;33.65
20027;BME280;10174;42.688;23.344;2023-07-16T11:38:04;95456.44;;;37.14;34.11
20027;BME280;10174;42.688;23.344;2023-07-16T11:40:30;95447.59;;;36.59;35.25
20027;BME280;10174;42.688;23.344;2023-07-16T11:42:55;95363.53;;;35.11;35.97
20027;BME280;10174;42.688;23.344;2023-07-16T11:45:23;95452.63;;;35.53;36.75
20027;BME280;10174;42.688;23.344;2023-07-16T11:47:51;95454.06;;;35.88;36.42
20027;BME280;10174;42.688;23.344;2023-07-16T11:50:17;95441.28;;;35.63;36.86
20027;BME280;10174;42.688;23.344;2023-07-16T11:52:42;95381.91;;;35.36;36.90
20027;BME280;10174;42.688;23.344;2023-07-16T11:55:08;95368.38;;;35.34;36.78
20027;BME280;10174;42.688;23.344;2023-07-16T11:57:34;95375.84;;;35.64;36.24
20027;BME280;10174;42.688;23.344;2023-07-16T12:00:00;95388.53;;;35.69;35.73
20027;BME280;10174;42.688;23.344;2023-07-16T12:02:26;95445.31;;;36.10;36.53
20027;BME280;10174;42.688;23.344;2023-07-16T12:04:52;95434.44;;;35.92;35.83
20027;BME280;10174;42.688;23.344;2023-07-16T12:07:35;95430.81;;;35.95;35.41
20027;BME280;10174;42.688;23.344;2023-07-16T12:10:02;95428.09;;;36.11;34.63
20027;BME280;10174;42.688;23.344;2023-07-16T12:12:28;95439.94;;;35.48;36.38
20027;BME280;10174;42.688;23.344;2023-07-16T12:14:54;95420.31;;;35.24;35.66
20027;BME280;10174;42.688;23.344;2023-07-16T12:17:19;95420.81;;;35.46;35.92
20027;BME280;10174;42.688;23.344;2023-07-16T12:19:44;95432.38;;;35.72;34.25
20027;BME280;10174;42.688;23.344;2023-07-16T12:22:10;95413.53;;;35.80;35.27
20027;BME280;10174;42.688;23.344;2023-07-16T12:24:36;95364.84;;;35.30;35.26
20027;BME280;10174;42.688;23.344;2023-07-16T12:27:01;95431.06;;;35.53;35.92
20027;BME280;10174;42.688;23.344;2023-07-16T12:29:26;95426.75;;;35.21;35.35
20027;BME280;10174;42.688;23.344;2023-07-16T12:31:53;95412.09;;;35.17;35.38
20027;BME280;10174;42.688;23.344;2023-07-16T12:34:18;95343.41;;;34.69;35.55
20027;BME280;10174;42.688;23.344;2023-07-16T12:36:43;95412.44;;;35.19;34.79
20027;BME280;10174;42.688;23.344;2023-07-16T12:39:09;95408.81;;;35.22;34.04
20027;BME280;10174;42.688;23.344;2023-07-16T12:41:34;95429.50;;;34.97;35.25
20027;BME280;10174;42.688;23.344;2023-07-16T12:44:00;95364.38;;;34.15;34.79
20027;BME280;10174;42.688;23.344;2023-07-16T12:46:25;95398.63;;;34.12;35.32
20027;BME280;10174;42.688;23.344;2023-07-16T12:48:51;95393.78;;;34.20;35.30
20027;BME280;10174;42.688;23.344;2023-07-16T12:51:16;95409.03;;;34.46;34.70